createdAt,value
2023-05-13T00:01:41.255Z,21.02
2023-05-13T00:04:44.042Z,20.96
2023-05-13T00:07:46.807Z,20.97
2023-05-13T00:10:50.995Z,21.02
2023-05-13T00:13:53.729Z,21.04
2023-05-13T00:16:58.834Z,20.99
2023-05-13T00:20:02.033Z,20.98
2023-05-13T00:23:04.879Z,21.02
2023-05-13T00:26:09.006Z,21.02
2023-05-13T00:29:11.736Z,21.03
2023-05-13T00:32:14.565Z,21.01
2023-05-13T00:35:17.391Z,21.00
2023-05-13T00:38:20.133Z,20.99
2023-05-13T00:41:24.522Z,21.03
2023-05-13T00:44:28.286Z,21.00
2023-05-13T00:47:31.225Z,20.97
2023-05-13T00:50:34.620Z,20.94
2023-05-13T00:53:37.654Z,20.99
2023-05-13T00:56:41.805Z,20.98
2023-05-13T00:59:44.577Z,20.94
2023-05-13T01:02:51.374Z,20.97
2023-05-13T01:06:00.170Z,21.01
2023-05-13T01:09:04.526Z,20.94
2023-05-13T01:12:12.198Z,20.97
2023-05-13T01:15:16.639Z,20.94
2023-05-13T01:18:20.994Z,21.02
2023-05-13T01:21:26.133Z,21.08
2023-05-13T01:24:29.041Z,21.02
2023-05-13T01:27:31.903Z,21.00
2023-05-13T01:30:35.150Z,20.95
2023-05-13T01:33:38.217Z,20.95
2023-05-13T01:36:42.413Z,20.94
2023-05-13T01:39:45.232Z,20.96
2023-05-13T01:42:48.012Z,20.94
2023-05-13T01:45:51.641Z,20.94
2023-05-13T01:48:54.776Z,20.97
2023-05-13T01:51:58.934Z,20.93
2023-05-13T01:55:01.752Z,20.89
2023-05-13T01:58:04.751Z,20.95
2023-05-13T02:01:07.548Z,20.89
2023-05-13T02:04:10.316Z,20.91
2023-05-13T02:07:14.424Z,20.88
2023-05-13T02:10:17.322Z,20.89
2023-05-13T02:13:20.078Z,20.87
2023-05-13T02:16:23.074Z,20.87
2023-05-13T02:19:25.952Z,20.88
2023-05-13T02:22:30.180Z,20.90
2023-05-13T02:25:32.995Z,20.90
2023-05-13T02:28:35.744Z,20.89
2023-05-13T02:31:38.602Z,20.91
2023-05-13T02:34:41.454Z,20.94
2023-05-13T02:37:45.663Z,20.95
2023-05-13T02:40:48.464Z,20.93
2023-05-13T02:43:51.224Z,20.96
2023-05-13T02:46:54.067Z,20.97
2023-05-13T02:49:57.704Z,20.95
2023-05-13T02:53:01.888Z,20.97
2023-05-13T02:56:04.707Z,20.97
2023-05-13T02:59:07.416Z,20.98
2023-05-13T03:02:10.262Z,20.97
2023-05-13T03:05:12.982Z,20.99
2023-05-13T03:08:17.288Z,21.01
2023-05-13T03:11:20.036Z,21.05
2023-05-13T03:14:23.260Z,21.06
2023-05-13T03:17:26.350Z,21.11
2023-05-13T03:20:29.120Z,21.15
2023-05-13T03:23:34.243Z,21.17
2023-05-13T03:26:37.118Z,21.22
2023-05-13T03:29:39.952Z,21.21
2023-05-13T03:32:42.713Z,21.23
2023-05-13T03:35:45.746Z,21.24
2023-05-13T03:38:49.885Z,21.26
2023-05-13T03:41:52.684Z,21.31
2023-05-13T03:44:57.156Z,21.29
2023-05-13T03:47:59.980Z,21.30
2023-05-13T03:51:02.958Z,21.31
2023-05-13T03:54:07.169Z,21.34
2023-05-13T03:57:10.118Z,21.38
2023-05-13T04:00:13.731Z,21.38
2023-05-13T04:03:17.486Z,21.40
2023-05-13T04:06:20.492Z,21.43
2023-05-13T04:09:24.711Z,21.44
2023-05-13T04:12:27.538Z,21.47
2023-05-13T04:15:31.795Z,21.47
2023-05-13T04:18:35.185Z,21.51
2023-05-13T04:21:37.910Z,21.57
2023-05-13T04:24:42.102Z,21.60
2023-05-13T04:27:44.933Z,21.60
2023-05-13T04:30:47.782Z,21.66
2023-05-13T04:33:50.528Z,21.69
2023-05-13T04:36:53.276Z,21.70
2023-05-13T04:39:57.404Z,21.72
2023-05-13T04:43:00.225Z,21.72
2023-05-13T04:46:03.050Z,21.76
2023-05-13T04:49:05.877Z,21.81
2023-05-13T04:52:08.947Z,21.85
2023-05-13T04:55:13.027Z,21.87
2023-05-13T04:58:15.859Z,21.89
2023-05-13T05:01:18.768Z,21.91
2023-05-13T05:04:21.712Z,21.94
2023-05-13T05:07:24.598Z,21.92
2023-05-13T05:10:28.783Z,22.01
2023-05-13T05:13:31.534Z,21.96
2023-05-13T05:16:34.400Z,21.99
2023-05-13T05:19:37.118Z,22.03
2023-05-13T05:22:41.885Z,22.02
2023-05-13T05:25:46.081Z,22.08
2023-05-13T05:28:48.911Z,22.10
2023-05-13T05:31:51.698Z,22.10
2023-05-13T05:34:54.622Z,22.10
2023-05-13T05:37:58.053Z,22.13
2023-05-13T05:41:02.209Z,22.14
2023-05-13T05:44:04.986Z,22.16
2023-05-13T05:47:07.783Z,22.21
2023-05-13T05:50:10.775Z,22.23
2023-05-13T05:53:13.543Z,22.20
2023-05-13T05:56:17.666Z,22.24
2023-05-13T05:59:20.558Z,22.26
2023-05-13T06:02:23.364Z,22.29
2023-05-13T06:05:26.287Z,22.29
2023-05-13T06:08:30.412Z,22.29
2023-05-13T06:11:34.697Z,22.36
2023-05-13T06:14:37.460Z,22.40
2023-05-13T06:17:40.335Z,22.40
2023-05-13T06:20:43.083Z,22.38
2023-05-13T06:23:46.030Z,22.40
2023-05-13T06:26:50.174Z,22.43
2023-05-13T06:29:52.977Z,22.51
2023-05-13T06:33:01.723Z,22.52
2023-05-13T06:36:05.342Z,22.50
2023-05-13T06:39:08.176Z,22.50
2023-05-13T06:42:14.193Z,22.53
2023-05-13T06:45:18.531Z,22.49
2023-05-13T06:48:21.289Z,22.59
2023-05-13T06:51:24.144Z,22.55
2023-05-13T06:54:27.761Z,22.59
2023-05-13T06:57:41.944Z,22.57
2023-05-13T07:00:46.864Z,22.53
2023-05-13T07:03:49.735Z,22.50
2023-05-13T07:06:54.771Z,22.57
2023-05-13T07:09:57.541Z,22.55
2023-05-13T07:13:01.747Z,22.62
2023-05-13T07:16:04.620Z,22.64
2023-05-13T07:19:07.700Z,22.69
2023-05-13T07:22:10.495Z,22.72
2023-05-13T07:25:13.638Z,22.63
2023-05-13T07:28:17.774Z,22.65
2023-05-13T07:31:20.703Z,22.64
2023-05-13T07:34:23.588Z,22.69
2023-05-13T07:37:26.303Z,22.79
2023-05-13T07:40:29.074Z,22.73
2023-05-13T07:43:35.177Z,22.80
2023-05-13T07:46:38.096Z,22.69
2023-05-13T07:49:40.881Z,22.77
2023-05-13T07:52:44.305Z,22.74
2023-05-13T07:55:47.303Z,22.81
2023-05-13T07:58:51.516Z,22.77
2023-05-13T08:01:54.339Z,22.78
2023-05-13T08:04:57.122Z,22.74
2023-05-13T08:08:00.466Z,22.78
2023-05-13T08:11:03.260Z,22.78
2023-05-13T08:14:07.475Z,22.80
2023-05-13T08:17:10.318Z,22.83
2023-05-13T08:20:15.214Z,22.96
2023-05-13T08:23:18.024Z,22.98
2023-05-13T08:26:21.017Z,22.84
2023-05-13T08:29:25.222Z,22.90
2023-05-13T08:32:28.046Z,22.89
2023-05-13T08:35:30.831Z,22.90
2023-05-13T08:38:33.839Z,22.93
2023-05-13T08:41:36.917Z,22.90
2023-05-13T08:44:44.167Z,22.85
2023-05-13T08:47:51.555Z,22.92
2023-05-13T08:50:54.408Z,22.87
2023-05-13T08:53:57.468Z,22.89
2023-05-13T08:57:00.265Z,22.85
2023-05-13T09:00:04.745Z,22.86
2023-05-13T09:03:08.220Z,22.85
2023-05-13T09:06:11.110Z,22.93
2023-05-13T09:09:13.937Z,22.89
2023-05-13T09:12:31.609Z,22.88
2023-05-13T09:15:35.776Z,22.90
2023-05-13T09:18:39.202Z,22.94
2023-05-13T09:21:42.152Z,22.94
2023-05-13T09:24:54.395Z,22.97
2023-05-13T09:27:59.053Z,22.93
2023-05-13T09:31:03.446Z,22.94
2023-05-13T09:34:06.260Z,23.00
2023-05-13T09:37:10.075Z,23.02
2023-05-13T09:40:13.745Z,23.05
2023-05-13T09:43:16.665Z,23.03
2023-05-13T09:46:21.739Z,23.06
2023-05-13T09:49:25.143Z,23.06
2023-05-13T09:52:27.897Z,23.06
2023-05-13T09:55:30.704Z,23.09
2023-05-13T09:58:34.745Z,23.08
2023-05-13T10:01:40.350Z,23.12
2023-05-13T10:04:43.285Z,22.74
2023-05-13T10:07:46.071Z,22.63
2023-05-13T10:10:50.078Z,22.69
2023-05-13T10:13:56.781Z,22.72
2023-05-13T10:17:00.911Z,23.06
2023-05-13T10:20:05.194Z,23.14
2023-05-13T10:23:08.684Z,23.26
2023-05-13T10:26:11.501Z,23.27
2023-05-13T10:29:14.387Z,23.33
2023-05-13T10:32:18.550Z,23.21
2023-05-13T10:35:21.517Z,23.35
2023-05-13T10:38:27.666Z,23.32
2023-05-13T10:41:48.359Z,23.55
2023-05-13T10:44:53.846Z,23.37
2023-05-13T10:47:58.262Z,23.38
2023-05-13T10:51:02.765Z,23.35
2023-05-13T10:54:18.834Z,23.36
2023-05-13T10:57:28.459Z,23.29
2023-05-13T11:00:31.982Z,23.08
2023-05-13T11:03:36.229Z,23.06
2023-05-13T11:06:40.042Z,23.17
2023-05-13T11:09:42.779Z,23.26
2023-05-13T11:13:06.923Z,23.51
2023-05-13T11:16:13.733Z,23.57
2023-05-13T11:19:24.873Z,23.39
2023-05-13T11:22:31.125Z,23.55
2023-05-13T11:25:33.920Z,23.51
2023-05-13T11:28:51.533Z,23.55
2023-05-13T11:31:58.478Z,23.62
2023-05-13T11:35:04.443Z,23.63
2023-05-13T11:38:07.174Z,23.60
2023-05-13T11:41:10.191Z,23.63
2023-05-13T11:44:14.193Z,23.72
2023-05-13T11:47:26.360Z,23.67
2023-05-13T11:50:32.495Z,23.62
2023-05-13T11:53:35.380Z,23.57
2023-05-13T11:56:38.249Z,23.65
2023-05-13T11:59:47.938Z,23.77
2023-05-13T12:02:51.200Z,23.80
2023-05-13T12:06:01.365Z,23.83
2023-05-13T12:09:07.588Z,23.83
2023-05-13T12:12:10.558Z,23.71
2023-05-13T12:15:14.446Z,23.65
2023-05-13T12:18:17.342Z,23.58
2023-05-13T12:21:22.361Z,23.78
2023-05-13T12:24:25.113Z,23.55
2023-05-13T12:27:28.091Z,23.50
2023-05-13T12:30:35.686Z,23.57
2023-05-13T12:33:42.832Z,23.74
2023-05-13T12:36:46.984Z,23.56
2023-05-13T12:39:49.720Z,23.53
2023-05-13T12:42:52.524Z,23.49
2023-05-13T12:45:56.597Z,23.52
2023-05-13T12:49:00.711Z,23.50
2023-05-13T12:52:05.738Z,23.53
2023-05-13T12:55:08.906Z,23.55
2023-05-13T12:58:12.359Z,23.56
2023-05-13T13:01:15.258Z,23.58
2023-05-13T13:04:19.221Z,23.62
2023-05-13T13:07:23.437Z,23.66
2023-05-13T13:10:27.220Z,23.56
2023-05-13T13:13:29.982Z,23.62
2023-05-13T13:16:33.113Z,23.70
2023-05-13T13:19:35.968Z,23.72
2023-05-13T13:22:40.187Z,23.73
2023-05-13T13:25:42.983Z,23.72
2023-05-13T13:28:45.815Z,23.70
2023-05-13T13:31:48.686Z,23.74
2023-05-13T13:34:52.511Z,23.72
2023-05-13T13:37:56.612Z,23.76
2023-05-13T13:40:59.405Z,23.77
2023-05-13T13:44:02.196Z,23.76
2023-05-13T13:47:06.045Z,23.76
2023-05-13T13:50:09.011Z,23.80
2023-05-13T13:53:13.248Z,23.77
2023-05-13T13:56:16.008Z,23.79
2023-05-13T13:59:20.019Z,23.78
2023-05-13T14:02:22.972Z,23.82
2023-05-13T14:05:25.792Z,23.81
2023-05-13T14:08:29.959Z,23.81
2023-05-13T14:11:33.018Z,23.83
2023-05-13T14:14:35.813Z,23.86
2023-05-13T14:17:38.715Z,23.87
2023-05-13T14:20:41.497Z,23.82
2023-05-13T14:23:45.622Z,23.86
2023-05-13T14:26:48.368Z,23.84
2023-05-13T14:29:51.651Z,23.87
2023-05-13T14:32:54.531Z,23.90
2023-05-13T14:35:57.351Z,23.89
2023-05-13T14:39:01.538Z,23.89
2023-05-13T14:42:04.509Z,23.92
2023-05-13T14:45:07.909Z,23.94
2023-05-13T14:48:16.473Z,23.91
2023-05-13T14:51:19.269Z,23.91
2023-05-13T14:54:23.423Z,23.92
2023-05-13T14:57:26.197Z,23.96
2023-05-13T15:00:28.937Z,23.98
2023-05-13T15:03:31.792Z,24.40
2023-05-13T15:06:34.771Z,24.12
2023-05-13T15:09:38.887Z,24.07
2023-05-13T15:12:41.662Z,24.05
2023-05-13T15:15:44.456Z,24.06
2023-05-13T15:18:47.341Z,24.11
2023-05-13T15:21:50.101Z,24.06
2023-05-13T15:24:54.276Z,24.03
2023-05-13T15:27:56.962Z,24.09
2023-05-13T15:30:59.815Z,24.17
2023-05-13T15:34:03.331Z,24.05
2023-05-13T15:37:06.336Z,23.66
2023-05-13T15:40:11.300Z,23.21
2023-05-13T15:43:14.130Z,23.14
2023-05-13T15:46:17.042Z,23.07
2023-05-13T15:49:19.902Z,23.11
2023-05-13T15:52:22.691Z,23.22
2023-05-13T15:55:26.908Z,23.70
2023-05-13T15:58:29.710Z,23.88
2023-05-13T16:01:32.707Z,23.91
2023-05-13T16:04:35.666Z,23.89
2023-05-13T16:07:38.572Z,23.91
2023-05-13T16:10:42.733Z,23.90
2023-05-13T16:13:45.716Z,23.92
2023-05-13T16:16:48.541Z,23.93
2023-05-13T16:19:51.588Z,23.91
2023-05-13T16:22:54.404Z,23.90
2023-05-13T16:25:58.821Z,23.84
2023-05-13T16:29:01.540Z,23.73
2023-05-13T16:32:04.489Z,23.78
2023-05-13T16:35:08.001Z,23.75
2023-05-13T16:38:10.706Z,23.65
2023-05-13T16:41:14.924Z,23.64
2023-05-13T16:44:18.397Z,23.66
2023-05-13T16:47:21.979Z,23.62
2023-05-13T16:50:25.080Z,23.72
2023-05-13T16:53:28.061Z,23.82
2023-05-13T16:56:32.366Z,23.71
2023-05-13T16:59:35.180Z,23.68
2023-05-13T17:02:37.990Z,23.78
2023-05-13T17:05:40.854Z,23.78
2023-05-13T17:08:44.729Z,23.74
2023-05-13T17:11:48.947Z,23.72
2023-05-13T17:14:51.920Z,23.05
2023-05-13T17:17:54.825Z,22.38
2023-05-13T17:20:57.645Z,21.89
2023-05-13T17:24:00.594Z,21.64
2023-05-13T17:27:05.147Z,21.53
2023-05-13T17:30:08.678Z,21.45
2023-05-13T17:33:11.524Z,21.44
2023-05-13T17:36:14.318Z,21.43
2023-05-13T17:39:17.136Z,21.30
2023-05-13T17:42:21.881Z,21.29
2023-05-13T17:45:24.703Z,21.02
2023-05-13T17:48:27.814Z,20.97
2023-05-13T17:51:30.664Z,21.01
2023-05-13T17:54:33.428Z,20.79
2023-05-13T17:57:37.592Z,20.68
2023-05-13T18:00:40.676Z,20.67
2023-05-13T18:03:43.519Z,20.74
2023-05-13T18:06:46.334Z,20.68
2023-05-13T18:09:50.025Z,20.47
2023-05-13T18:12:54.371Z,20.38
2023-05-13T18:15:57.158Z,20.33
2023-05-13T18:18:59.971Z,20.29
2023-05-13T18:22:02.956Z,20.25
2023-05-13T18:25:06.372Z,20.17
2023-05-13T18:28:10.584Z,20.09
2023-05-13T18:31:13.358Z,20.20
2023-05-13T18:34:16.220Z,20.20
2023-05-13T18:37:19.184Z,20.15
2023-05-13T18:40:22.512Z,20.40
2023-05-13T18:43:26.839Z,20.12
2023-05-13T18:46:30.871Z,20.20
2023-05-13T18:49:34.003Z,20.01
2023-05-13T18:52:37.160Z,19.93
2023-05-13T18:55:40.031Z,20.06
2023-05-13T18:58:46.091Z,20.11
2023-05-13T19:01:48.955Z,19.78
2023-05-13T19:04:51.866Z,19.83
2023-05-13T19:07:54.662Z,19.87
2023-05-13T19:10:57.678Z,19.95
2023-05-13T19:14:02.444Z,19.95
2023-05-13T19:17:05.451Z,19.78
2023-05-13T19:20:09.092Z,19.99
2023-05-13T19:23:11.860Z,19.70
2023-05-13T19:26:15.049Z,19.81
2023-05-13T19:29:19.626Z,19.85
2023-05-13T19:32:22.530Z,19.91
2023-05-13T19:35:25.432Z,19.95
2023-05-13T19:38:28.195Z,19.69
2023-05-13T19:41:31.534Z,19.88
2023-05-13T19:44:36.211Z,20.10
2023-05-13T19:47:39.152Z,20.09
2023-05-13T19:50:42.172Z,20.15
2023-05-13T19:53:44.952Z,20.32
2023-05-13T19:56:47.933Z,20.37
2023-05-13T19:59:52.378Z,20.32
2023-05-13T20:02:55.247Z,20.29
2023-05-13T20:05:58.151Z,20.27
2023-05-13T20:09:01.997Z,20.40
2023-05-13T20:12:05.048Z,20.25
2023-05-13T20:15:10.438Z,20.12
2023-05-13T20:18:13.289Z,20.05
2023-05-13T20:21:16.311Z,20.04
2023-05-13T20:24:19.053Z,19.95
2023-05-13T20:27:21.877Z,19.76
2023-05-13T20:30:26.171Z,19.91
2023-05-13T20:33:29.289Z,19.94
2023-05-13T20:36:32.756Z,19.76
2023-05-13T20:39:35.669Z,19.71
2023-05-13T20:42:38.521Z,19.86
2023-05-13T20:45:42.785Z,19.67
2023-05-13T20:48:45.819Z,19.91
2023-05-13T20:51:48.974Z,19.88
2023-05-13T20:54:51.768Z,19.77
2023-05-13T20:57:54.585Z,19.97
2023-05-13T21:00:58.707Z,19.72
2023-05-13T21:04:04.102Z,20.03
2023-05-13T21:07:06.981Z,19.78
2023-05-13T21:10:11.203Z,19.77
2023-05-13T21:13:13.982Z,19.62
2023-05-13T21:16:18.262Z,19.64
2023-05-13T21:19:22.028Z,19.47
2023-05-13T21:22:24.830Z,19.48
2023-05-13T21:25:27.721Z,19.62
2023-05-13T21:28:30.463Z,19.40
2023-05-13T21:31:34.730Z,19.50
2023-05-13T21:34:37.581Z,19.50
2023-05-13T21:37:40.931Z,19.47
2023-05-13T21:40:44.018Z,21.19
2023-05-13T21:43:46.810Z,21.56
2023-05-13T21:46:50.965Z,21.59
2023-05-13T21:49:53.736Z,21.84
2023-05-13T21:52:56.573Z,21.98
2023-05-13T21:56:00.322Z,22.17
2023-05-13T21:59:03.193Z,22.21
2023-05-13T22:02:07.511Z,22.23
2023-05-13T22:05:10.657Z,22.30
2023-05-13T22:08:13.891Z,22.36
2023-05-13T22:11:16.641Z,22.33
2023-05-13T22:14:19.463Z,22.31
2023-05-13T22:17:23.662Z,22.31
2023-05-13T22:20:26.757Z,22.36
2023-05-13T22:23:29.574Z,22.36
2023-05-13T22:26:32.398Z,22.37
2023-05-13T22:29:35.212Z,22.36
2023-05-13T22:32:40.154Z,22.48
2023-05-13T22:35:42.974Z,22.47
2023-05-13T22:38:45.847Z,22.50
2023-05-13T22:41:48.667Z,22.46
2023-05-13T22:44:51.428Z,22.51
2023-05-13T22:47:56.112Z,22.50
2023-05-13T22:50:58.960Z,22.52
2023-05-13T22:54:01.759Z,22.49
2023-05-13T22:57:04.631Z,22.67
2023-05-13T23:00:08.377Z,22.66
2023-05-13T23:03:12.514Z,22.69
2023-05-13T23:06:15.369Z,22.62
2023-05-13T23:09:18.091Z,22.60
2023-05-13T23:12:20.913Z,22.62
2023-05-13T23:15:23.716Z,22.62
2023-05-13T23:18:27.868Z,22.64
2023-05-13T23:21:30.824Z,22.60
2023-05-13T23:24:33.580Z,22.66
2023-05-13T23:27:36.408Z,22.66
2023-05-13T23:30:39.272Z,22.69
2023-05-13T23:33:43.543Z,22.76
2023-05-13T23:36:46.289Z,22.72
2023-05-13T23:39:49.120Z,22.73
2023-05-13T23:42:51.963Z,22.71
2023-05-13T23:45:55.244Z,22.70
2023-05-13T23:48:59.901Z,22.71
2023-05-13T23:52:02.703Z,22.70
2023-05-13T23:55:06.107Z,22.71
